sensor_id;sensor_type;location;lat;lon;timestamp;P1;durP1;ratioP1;P2;durP2;ratioP2
38843;SDS011;24596;48.080;8.362;2023-09-07T00:02:25;12.23;;;7.63;;
38843;SDS011;24596;48.080;8.362;2023-09-07T00:04:50;11.13;;;6.68;;
38843;SDS011;24596;48.080;8.362;2023-09-07T00:07:15;11.63;;;7.15;;
38843;SDS011;24596;48.080;8.362;2023-09-07T00:09:40;14.75;;;7.03;;
38843;SDS011;24596;48.080;8.362;2023-09-07T00:12:06;13.02;;;7.60;;
38843;SDS011;24596;48.080;8.362;2023-09-07T00:14:31;9.30;;;6.60;;
38843;SDS011;24596;48.080;8.362;2023-09-07T00:16:56;11.65;;;7.22;;
38843;SDS011;24596;48.080;8.362;2023-09-07T00:19:22;10.95;;;6.53;;
38843;SDS011;24596;48.080;8.362;2023-09-07T00:21:47;14.65;;;6.63;;
38843;SDS011;24596;48.080;8.362;2023-09-07T00:24:12;10.38;;;6.07;;
38843;SDS011;24596;48.080;8.362;2023-09-07T00:26:37;12.80;;;6.68;;
38843;SDS011;24596;48.080;8.362;2023-09-07T00:29:03;13.18;;;6.38;;
38843;SDS011;24596;48.080;8.362;2023-09-07T00:31:28;11.65;;;7.55;;
38843;SDS011;24596;48.080;8.362;2023-09-07T00:33:53;10.98;;;6.40;;
38843;SDS011;24596;48.080;8.362;2023-09-07T00:36:18;11.40;;;6.90;;
38843;SDS011;24596;48.080;8.362;2023-09-07T00:38:43;10.60;;;6.68;;
38843;SDS011;24596;48.080;8.362;2023-09-07T00:41:09;9.88;;;6.13;;
38843;SDS011;24596;48.080;8.362;2023-09-07T00:43:34;10.50;;;6.47;;
38843;SDS011;24596;48.080;8.362;2023-09-07T00:45:59;11.95;;;7.13;;
38843;SDS011;24596;48.080;8.362;2023-09-07T00:48:24;10.82;;;6.80;;
38843;SDS011;24596;48.080;8.362;2023-09-07T00:50:50;10.48;;;6.32;;
38843;SDS011;24596;48.080;8.362;2023-09-07T00:53:15;10.00;;;6.80;;
38843;SDS011;24596;48.080;8.362;2023-09-07T00:55:41;10.30;;;6.95;;
38843;SDS011;24596;48.080;8.362;2023-09-07T00:58:07;11.40;;;7.13;;
38843;SDS011;24596;48.080;8.362;2023-09-07T01:00:32;9.43;;;6.28;;
38843;SDS011;24596;48.080;8.362;2023-09-07T01:02:59;14.38;;;6.55;;
38843;SDS011;24596;48.080;8.362;2023-09-07T01:05:30;9.73;;;6.63;;
38843;SDS011;24596;48.080;8.362;2023-09-07T01:07:59;14.60;;;7.57;;
38843;SDS011;24596;48.080;8.362;2023-09-07T01:10:25;9.35;;;6.05;;
38843;SDS011;24596;48.080;8.362;2023-09-07T01:12:51;9.77;;;6.10;;
38843;SDS011;24596;48.080;8.362;2023-09-07T01:15:16;9.43;;;6.03;;
38843;SDS011;24596;48.080;8.362;2023-09-07T01:17:42;9.30;;;6.65;;
38843;SDS011;24596;48.080;8.362;2023-09-07T01:20:08;14.82;;;6.85;;
38843;SDS011;24596;48.080;8.362;2023-09-07T01:22:35;10.07;;;6.50;;
38843;SDS011;24596;48.080;8.362;2023-09-07T01:25:00;12.02;;;6.50;;
38843;SDS011;24596;48.080;8.362;2023-09-07T01:27:26;10.88;;;6.78;;
38843;SDS011;24596;48.080;8.362;2023-09-07T01:29:52;10.00;;;6.35;;
38843;SDS011;24596;48.080;8.362;2023-09-07T01:32:17;11.70;;;6.75;;
38843;SDS011;24596;48.080;8.362;2023-09-07T01:34:42;12.00;;;6.68;;
38843;SDS011;24596;48.080;8.362;2023-09-07T01:37:08;11.93;;;6.80;;
38843;SDS011;24596;48.080;8.362;2023-09-07T01:39:33;11.02;;;6.63;;
38843;SDS011;24596;48.080;8.362;2023-09-07T01:41:58;11.07;;;6.70;;
38843;SDS011;24596;48.080;8.362;2023-09-07T01:44:23;11.52;;;6.88;;
38843;SDS011;24596;48.080;8.362;2023-09-07T01:46:48;10.65;;;6.45;;
38843;SDS011;24596;48.080;8.362;2023-09-07T01:49:14;10.95;;;7.05;;
38843;SDS011;24596;48.080;8.362;2023-09-07T01:51:39;11.00;;;6.40;;
38843;SDS011;24596;48.080;8.362;2023-09-07T01:54:04;9.02;;;6.10;;
38843;SDS011;24596;48.080;8.362;2023-09-07T01:56:30;10.80;;;6.63;;
38843;SDS011;24596;48.080;8.362;2023-09-07T01:58:55;13.40;;;6.60;;
38843;SDS011;24596;48.080;8.362;2023-09-07T02:03:46;11.70;;;6.32;;
38843;SDS011;24596;48.080;8.362;2023-09-07T02:06:11;10.20;;;6.10;;
38843;SDS011;24596;48.080;8.362;2023-09-07T02:08:36;10.15;;;6.25;;
38843;SDS011;24596;48.080;8.362;2023-09-07T02:11:01;9.18;;;5.85;;
38843;SDS011;24596;48.080;8.362;2023-09-07T02:13:27;9.50;;;6.03;;
38843;SDS011;24596;48.080;8.362;2023-09-07T02:15:52;9.32;;;5.88;;
38843;SDS011;24596;48.080;8.362;2023-09-07T02:18:18;8.98;;;6.07;;
38843;SDS011;24596;48.080;8.362;2023-09-07T02:20:43;11.50;;;6.28;;
38843;SDS011;24596;48.080;8.362;2023-09-07T02:23:11;11.73;;;6.22;;
38843;SDS011;24596;48.080;8.362;2023-09-07T02:25:37;11.73;;;6.35;;
38843;SDS011;24596;48.080;8.362;2023-09-07T02:28:02;11.10;;;6.00;;
38843;SDS011;24596;48.080;8.362;2023-09-07T02:30:27;14.23;;;6.25;;
38843;SDS011;24596;48.080;8.362;2023-09-07T02:32:52;11.23;;;6.40;;
38843;SDS011;24596;48.080;8.362;2023-09-07T02:35:18;9.80;;;6.22;;
38843;SDS011;24596;48.080;8.362;2023-09-07T02:37:43;11.27;;;6.47;;
38843;SDS011;24596;48.080;8.362;2023-09-07T02:40:08;9.40;;;6.05;;
38843;SDS011;24596;48.080;8.362;2023-09-07T02:42:34;10.35;;;6.18;;
38843;SDS011;24596;48.080;8.362;2023-09-07T02:44:59;12.63;;;6.25;;
38843;SDS011;24596;48.080;8.362;2023-09-07T02:47:25;11.43;;;5.78;;
38843;SDS011;24596;48.080;8.362;2023-09-07T02:49:50;9.77;;;5.93;;
38843;SDS011;24596;48.080;8.362;2023-09-07T02:52:15;8.98;;;5.68;;
38843;SDS011;24596;48.080;8.362;2023-09-07T02:54:41;9.75;;;6.05;;
38843;SDS011;24596;48.080;8.362;2023-09-07T02:57:07;9.20;;;6.03;;
38843;SDS011;24596;48.080;8.362;2023-09-07T02:59:32;9.30;;;6.20;;
38843;SDS011;24596;48.080;8.362;2023-09-07T03:01:57;10.63;;;6.25;;
38843;SDS011;24596;48.080;8.362;2023-09-07T03:04:22;8.95;;;5.32;;
38843;SDS011;24596;48.080;8.362;2023-09-07T03:06:48;8.00;;;5.68;;
38843;SDS011;24596;48.080;8.362;2023-09-07T03:09:13;10.15;;;6.00;;
38843;SDS011;24596;48.080;8.362;2023-09-07T03:11:39;10.55;;;5.95;;
38843;SDS011;24596;48.080;8.362;2023-09-07T03:14:04;10.13;;;6.25;;
38843;SDS011;24596;48.080;8.362;2023-09-07T03:16:29;8.70;;;5.70;;
38843;SDS011;24596;48.080;8.362;2023-09-07T03:18:55;10.00;;;6.18;;
38843;SDS011;24596;48.080;8.362;2023-09-07T03:21:20;9.65;;;5.32;;
38843;SDS011;24596;48.080;8.362;2023-09-07T03:23:50;9.40;;;6.15;;
38843;SDS011;24596;48.080;8.362;2023-09-07T03:26:15;8.95;;;5.60;;
38843;SDS011;24596;48.080;8.362;2023-09-07T03:28:40;9.63;;;5.75;;
38843;SDS011;24596;48.080;8.362;2023-09-07T03:31:06;8.45;;;5.43;;
38843;SDS011;24596;48.080;8.362;2023-09-07T03:33:31;8.70;;;5.70;;
38843;SDS011;24596;48.080;8.362;2023-09-07T03:35:56;12.13;;;5.95;;
38843;SDS011;24596;48.080;8.362;2023-09-07T03:38:23;9.77;;;5.75;;
38843;SDS011;24596;48.080;8.362;2023-09-07T03:40:49;10.43;;;5.90;;
38843;SDS011;24596;48.080;8.362;2023-09-07T03:43:14;9.57;;;5.22;;
38843;SDS011;24596;48.080;8.362;2023-09-07T03:45:39;8.55;;;5.60;;
38843;SDS011;24596;48.080;8.362;2023-09-07T03:48:04;10.20;;;6.15;;
38843;SDS011;24596;48.080;8.362;2023-09-07T03:50:30;8.20;;;5.70;;
38843;SDS011;24596;48.080;8.362;2023-09-07T03:52:55;11.07;;;5.45;;
38843;SDS011;24596;48.080;8.362;2023-09-07T03:55:21;10.60;;;6.25;;
38843;SDS011;24596;48.080;8.362;2023-09-07T03:57:46;11.80;;;5.57;;
38843;SDS011;24596;48.080;8.362;2023-09-07T04:00:11;8.73;;;5.38;;
38843;SDS011;24596;48.080;8.362;2023-09-07T04:02:37;8.32;;;5.72;;
38843;SDS011;24596;48.080;8.362;2023-09-07T04:05:02;9.93;;;5.80;;
38843;SDS011;24596;48.080;8.362;2023-09-07T04:07:29;8.52;;;5.32;;
38843;SDS011;24596;48.080;8.362;2023-09-07T04:09:55;8.80;;;5.88;;
38843;SDS011;24596;48.080;8.362;2023-09-07T04:12:20;10.40;;;5.55;;
38843;SDS011;24596;48.080;8.362;2023-09-07T04:14:45;12.93;;;5.50;;
38843;SDS011;24596;48.080;8.362;2023-09-07T04:17:10;15.40;;;6.20;;
38843;SDS011;24596;48.080;8.362;2023-09-07T04:19:36;8.57;;;5.57;;
38843;SDS011;24596;48.080;8.362;2023-09-07T04:22:01;10.27;;;6.68;;
38843;SDS011;24596;48.080;8.362;2023-09-07T04:24:26;13.48;;;6.60;;
38843;SDS011;24596;48.080;8.362;2023-09-07T04:26:58;11.40;;;7.05;;
38843;SDS011;24596;48.080;8.362;2023-09-07T04:29:23;11.23;;;6.75;;
38843;SDS011;24596;48.080;8.362;2023-09-07T04:31:49;10.82;;;6.43;;
38843;SDS011;24596;48.080;8.362;2023-09-07T04:34:14;11.25;;;6.90;;
38843;SDS011;24596;48.080;8.362;2023-09-07T04:36:39;11.85;;;5.75;;
38843;SDS011;24596;48.080;8.362;2023-09-07T04:39:04;8.57;;;5.40;;
38843;SDS011;24596;48.080;8.362;2023-09-07T04:41:30;9.35;;;5.75;;
38843;SDS011;24596;48.080;8.362;2023-09-07T04:43:55;11.15;;;6.28;;
38843;SDS011;24596;48.080;8.362;2023-09-07T04:46:21;9.35;;;5.95;;
38843;SDS011;24596;48.080;8.362;2023-09-07T04:48:46;8.27;;;5.40;;
38843;SDS011;24596;48.080;8.362;2023-09-07T04:51:11;10.60;;;6.25;;
38843;SDS011;24596;48.080;8.362;2023-09-07T04:53:38;9.95;;;6.50;;
38843;SDS011;24596;48.080;8.362;2023-09-07T04:56:03;9.32;;;6.47;;
38843;SDS011;24596;48.080;8.362;2023-09-07T04:58:29;13.05;;;6.28;;
38843;SDS011;24596;48.080;8.362;2023-09-07T05:00:54;10.15;;;6.72;;
38843;SDS011;24596;48.080;8.362;2023-09-07T05:03:19;10.48;;;6.97;;
38843;SDS011;24596;48.080;8.362;2023-09-07T05:05:44;9.90;;;7.03;;
38843;SDS011;24596;48.080;8.362;2023-09-07T05:08:10;10.32;;;6.65;;
38843;SDS011;24596;48.080;8.362;2023-09-07T05:10:35;9.93;;;6.18;;
38843;SDS011;24596;48.080;8.362;2023-09-07T05:13:01;10.15;;;6.10;;
38843;SDS011;24596;48.080;8.362;2023-09-07T05:15:26;10.07;;;6.75;;
38843;SDS011;24596;48.080;8.362;2023-09-07T05:17:52;10.00;;;6.75;;
38843;SDS011;24596;48.080;8.362;2023-09-07T05:20:17;10.85;;;6.95;;
38843;SDS011;24596;48.080;8.362;2023-09-07T05:22:42;10.43;;;6.88;;
38843;SDS011;24596;48.080;8.362;2023-09-07T05:25:08;10.98;;;6.43;;
38843;SDS011;24596;48.080;8.362;2023-09-07T05:27:34;9.40;;;6.28;;
38843;SDS011;24596;48.080;8.362;2023-09-07T05:29:59;10.18;;;6.13;;
38843;SDS011;24596;48.080;8.362;2023-09-07T05:32:25;12.25;;;6.22;;
38843;SDS011;24596;48.080;8.362;2023-09-07T05:34:51;9.43;;;6.30;;
38843;SDS011;24596;48.080;8.362;2023-09-07T05:37:16;12.13;;;6.43;;
38843;SDS011;24596;48.080;8.362;2023-09-07T05:39:41;9.90;;;6.75;;
38843;SDS011;24596;48.080;8.362;2023-09-07T05:42:06;10.13;;;6.45;;
38843;SDS011;24596;48.080;8.362;2023-09-07T05:44:31;13.38;;;6.97;;
38843;SDS011;24596;48.080;8.362;2023-09-07T05:46:57;9.90;;;6.88;;
38843;SDS011;24596;48.080;8.362;2023-09-07T05:49:23;9.68;;;6.80;;
38843;SDS011;24596;48.080;8.362;2023-09-07T05:51:48;12.80;;;6.70;;
38843;SDS011;24596;48.080;8.362;2023-09-07T05:54:14;10.32;;;7.03;;
38843;SDS011;24596;48.080;8.362;2023-09-07T05:56:39;11.00;;;7.13;;
38843;SDS011;24596;48.080;8.362;2023-09-07T05:59:04;9.30;;;6.55;;
38843;SDS011;24596;48.080;8.362;2023-09-07T06:01:29;13.73;;;7.50;;
38843;SDS011;24596;48.080;8.362;2023-09-07T06:03:54;11.00;;;6.88;;
38843;SDS011;24596;48.080;8.362;2023-09-07T06:06:20;9.27;;;6.78;;
38843;SDS011;24596;48.080;8.362;2023-09-07T06:08:45;10.63;;;6.68;;
38843;SDS011;24596;48.080;8.362;2023-09-07T06:11:10;10.43;;;7.07;;
38843;SDS011;24596;48.080;8.362;2023-09-07T06:13:35;10.95;;;7.07;;
38843;SDS011;24596;48.080;8.362;2023-09-07T06:16:01;11.85;;;7.43;;
38843;SDS011;24596;48.080;8.362;2023-09-07T06:18:26;10.20;;;7.60;;
38843;SDS011;24596;48.080;8.362;2023-09-07T06:20:51;11.88;;;7.20;;
38843;SDS011;24596;48.080;8.362;2023-09-07T06:23:17;12.10;;;7.43;;
38843;SDS011;24596;48.080;8.362;2023-09-07T06:25:42;10.45;;;7.35;;
38843;SDS011;24596;48.080;8.362;2023-09-07T06:28:07;12.68;;;7.20;;
38843;SDS011;24596;48.080;8.362;2023-09-07T06:30:32;11.35;;;7.53;;
38843;SDS011;24596;48.080;8.362;2023-09-07T06:32:59;9.90;;;6.95;;
38843;SDS011;24596;48.080;8.362;2023-09-07T06:35:24;10.23;;;6.45;;
38843;SDS011;24596;48.080;8.362;2023-09-07T06:37:49;11.95;;;7.35;;
38843;SDS011;24596;48.080;8.362;2023-09-07T06:40:14;11.25;;;6.40;;
38843;SDS011;24596;48.080;8.362;2023-09-07T06:42:42;8.68;;;5.93;;
38843;SDS011;24596;48.080;8.362;2023-09-07T06:45:07;9.38;;;6.22;;
38843;SDS011;24596;48.080;8.362;2023-09-07T06:47:33;9.10;;;6.45;;
38843;SDS011;24596;48.080;8.362;2023-09-07T06:49:58;12.30;;;7.03;;
38843;SDS011;24596;48.080;8.362;2023-09-07T06:52:23;9.13;;;6.15;;
38843;SDS011;24596;48.080;8.362;2023-09-07T06:54:51;9.57;;;6.38;;
38843;SDS011;24596;48.080;8.362;2023-09-07T06:57:16;10.55;;;6.88;;
38843;SDS011;24596;48.080;8.362;2023-09-07T06:59:41;12.30;;;7.00;;
38843;SDS011;24596;48.080;8.362;2023-09-07T07:02:06;11.98;;;6.22;;
38843;SDS011;24596;48.080;8.362;2023-09-07T07:04:32;10.05;;;6.15;;
38843;SDS011;24596;48.080;8.362;2023-09-07T07:06:57;9.48;;;5.82;;
38843;SDS011;24596;48.080;8.362;2023-09-07T07:09:22;8.93;;;6.05;;
38843;SDS011;24596;48.080;8.362;2023-09-07T07:11:48;8.88;;;6.13;;
38843;SDS011;24596;48.080;8.362;2023-09-07T07:14:14;9.18;;;6.03;;
38843;SDS011;24596;48.080;8.362;2023-09-07T07:16:39;9.55;;;5.90;;
38843;SDS011;24596;48.080;8.362;2023-09-07T07:19:04;12.23;;;6.37;;
38843;SDS011;24596;48.080;8.362;2023-09-07T07:21:29;8.77;;;5.60;;
38843;SDS011;24596;48.080;8.362;2023-09-07T07:23:55;8.63;;;5.65;;
38843;SDS011;24596;48.080;8.362;2023-09-07T07:26:20;9.88;;;5.63;;
38843;SDS011;24596;48.080;8.362;2023-09-07T07:28:45;10.32;;;5.78;;
38843;SDS011;24596;48.080;8.362;2023-09-07T07:31:10;10.65;;;6.07;;
38843;SDS011;24596;48.080;8.362;2023-09-07T07:33:36;8.75;;;5.15;;
38843;SDS011;24596;48.080;8.362;2023-09-07T07:36:02;10.15;;;5.78;;
38843;SDS011;24596;48.080;8.362;2023-09-07T07:38:27;9.13;;;5.28;;
38843;SDS011;24596;48.080;8.362;2023-09-07T07:40:52;7.27;;;4.97;;
38843;SDS011;24596;48.080;8.362;2023-09-07T07:43:18;7.97;;;4.80;;
38843;SDS011;24596;48.080;8.362;2023-09-07T07:45:43;8.05;;;4.82;;
38843;SDS011;24596;48.080;8.362;2023-09-07T07:48:09;10.50;;;4.82;;
38843;SDS011;24596;48.080;8.362;2023-09-07T07:50:37;7.28;;;4.15;;
38843;SDS011;24596;48.080;8.362;2023-09-07T07:53:04;7.45;;;4.72;;
38843;SDS011;24596;48.080;8.362;2023-09-07T07:55:33;9.60;;;4.38;;
38843;SDS011;24596;48.080;8.362;2023-09-07T07:58:03;8.38;;;4.32;;
38843;SDS011;24596;48.080;8.362;2023-09-07T08:00:30;9.88;;;4.10;;
38843;SDS011;24596;48.080;8.362;2023-09-07T08:02:56;8.10;;;4.10;;
38843;SDS011;24596;48.080;8.362;2023-09-07T08:05:21;8.45;;;4.00;;
38843;SDS011;24596;48.080;8.362;2023-09-07T08:07:46;8.33;;;4.83;;
38843;SDS011;24596;48.080;8.362;2023-09-07T08:10:11;7.33;;;4.20;;
38843;SDS011;24596;48.080;8.362;2023-09-07T08:12:37;8.37;;;4.43;;
38843;SDS011;24596;48.080;8.362;2023-09-07T08:15:02;6.27;;;3.90;;
38843;SDS011;24596;48.080;8.362;2023-09-07T08:17:28;6.57;;;3.78;;
38843;SDS011;24596;48.080;8.362;2023-09-07T08:19:53;7.40;;;4.60;;
38843;SDS011;24596;48.080;8.362;2023-09-07T08:22:21;9.27;;;3.85;;
38843;SDS011;24596;48.080;8.362;2023-09-07T08:24:46;6.93;;;3.90;;
38843;SDS011;24596;48.080;8.362;2023-09-07T08:27:13;6.65;;;3.90;;
38843;SDS011;24596;48.080;8.362;2023-09-07T08:29:43;6.97;;;3.72;;
38843;SDS011;24596;48.080;8.362;2023-09-07T08:32:12;6.55;;;4.00;;
38843;SDS011;24596;48.080;8.362;2023-09-07T08:34:38;5.97;;;3.72;;
38843;SDS011;24596;48.080;8.362;2023-09-07T08:37:06;8.10;;;3.70;;
38843;SDS011;24596;48.080;8.362;2023-09-07T08:39:34;7.18;;;4.38;;
38843;SDS011;24596;48.080;8.362;2023-09-07T08:41:59;7.47;;;3.67;;
38843;SDS011;24596;48.080;8.362;2023-09-07T08:44:25;7.30;;;3.83;;
38843;SDS011;24596;48.080;8.362;2023-09-07T08:46:51;6.28;;;3.92;;
38843;SDS011;24596;48.080;8.362;2023-09-07T08:49:17;7.25;;;3.88;;
38843;SDS011;24596;48.080;8.362;2023-09-07T08:51:44;7.85;;;3.90;;
38843;SDS011;24596;48.080;8.362;2023-09-07T08:54:09;5.97;;;3.90;;
38843;SDS011;24596;48.080;8.362;2023-09-07T08:56:35;6.72;;;3.72;;
38843;SDS011;24596;48.080;8.362;2023-09-07T08:59:00;9.18;;;3.85;;
38843;SDS011;24596;48.080;8.362;2023-09-07T09:01:26;6.32;;;3.67;;
38843;SDS011;24596;48.080;8.362;2023-09-07T09:03:56;7.68;;;3.85;;
38843;SDS011;24596;48.080;8.362;2023-09-07T09:06:22;8.93;;;3.88;;
38843;SDS011;24596;48.080;8.362;2023-09-07T09:11:14;8.48;;;3.90;;
38843;SDS011;24596;48.080;8.362;2023-09-07T09:13:39;7.20;;;4.20;;
38843;SDS011;24596;48.080;8.362;2023-09-07T09:16:05;8.05;;;4.00;;
38843;SDS011;24596;48.080;8.362;2023-09-07T09:18:30;7.10;;;4.07;;
38843;SDS011;24596;48.080;8.362;2023-09-07T09:20:55;7.47;;;4.07;;
38843;SDS011;24596;48.080;8.362;2023-09-07T09:23:21;6.57;;;3.88;;
38843;SDS011;24596;48.080;8.362;2023-09-07T09:25:49;7.40;;;3.50;;
38843;SDS011;24596;48.080;8.362;2023-09-07T09:28:14;7.32;;;3.75;;
38843;SDS011;24596;48.080;8.362;2023-09-07T09:30:40;6.90;;;3.88;;
38843;SDS011;24596;48.080;8.362;2023-09-07T09:33:08;6.57;;;4.00;;
38843;SDS011;24596;48.080;8.362;2023-09-07T09:35:34;6.22;;;4.05;;
38843;SDS011;24596;48.080;8.362;2023-09-07T09:38:00;9.70;;;4.70;;
38843;SDS011;24596;48.080;8.362;2023-09-07T09:40:26;7.53;;;3.80;;
38843;SDS011;24596;48.080;8.362;2023-09-07T09:42:51;8.20;;;3.92;;
38843;SDS011;24596;48.080;8.362;2023-09-07T09:45:17;10.50;;;3.95;;
38843;SDS011;24596;48.080;8.362;2023-09-07T09:47:43;9.02;;;3.90;;
38843;SDS011;24596;48.080;8.362;2023-09-07T09:50:09;6.40;;;4.00;;
38843;SDS011;24596;48.080;8.362;2023-09-07T09:52:35;7.53;;;3.88;;
38843;SDS011;24596;48.080;8.362;2023-09-07T09:55:03;6.90;;;3.60;;
38843;SDS011;24596;48.080;8.362;2023-09-07T09:57:30;8.00;;;3.88;;
38843;SDS011;24596;48.080;8.362;2023-09-07T09:59:55;5.68;;;3.67;;
38843;SDS011;24596;48.080;8.362;2023-09-07T10:02:21;7.38;;;4.20;;
38843;SDS011;24596;48.080;8.362;2023-09-07T10:04:46;5.80;;;3.33;;
38843;SDS011;24596;48.080;8.362;2023-09-07T10:07:12;8.30;;;3.42;;
38843;SDS011;24596;48.080;8.362;2023-09-07T10:09:37;5.80;;;3.20;;
38843;SDS011;24596;48.080;8.362;2023-09-07T10:12:03;6.03;;;3.22;;
38843;SDS011;24596;48.080;8.362;2023-09-07T10:14:39;7.25;;;3.58;;
38843;SDS011;24596;48.080;8.362;2023-09-07T10:17:05;6.13;;;3.33;;
38843;SDS011;24596;48.080;8.362;2023-09-07T10:19:30;8.05;;;3.60;;
38843;SDS011;24596;48.080;8.362;2023-09-07T10:21:56;7.50;;;3.83;;
38843;SDS011;24596;48.080;8.362;2023-09-07T10:24:28;6.65;;;3.65;;
38843;SDS011;24596;48.080;8.362;2023-09-07T10:26:57;7.65;;;3.70;;
38843;SDS011;24596;48.080;8.362;2023-09-07T10:29:22;6.35;;;3.75;;
38843;SDS011;24596;48.080;8.362;2023-09-07T10:31:51;8.27;;;3.78;;
38843;SDS011;24596;48.080;8.362;2023-09-07T10:34:17;8.88;;;3.78;;
38843;SDS011;24596;48.080;8.362;2023-09-07T10:36:42;10.57;;;4.15;;
38843;SDS011;24596;48.080;8.362;2023-09-07T10:39:07;7.23;;;3.77;;
38843;SDS011;24596;48.080;8.362;2023-09-07T10:41:43;8.23;;;3.65;;
38843;SDS011;24596;48.080;8.362;2023-09-07T10:44:09;6.70;;;3.53;;
38843;SDS011;24596;48.080;8.362;2023-09-07T10:46:35;6.22;;;3.45;;
38843;SDS011;24596;48.080;8.362;2023-09-07T10:49:02;6.53;;;4.05;;
38843;SDS011;24596;48.080;8.362;2023-09-07T10:51:27;8.35;;;4.20;;
38843;SDS011;24596;48.080;8.362;2023-09-07T10:53:54;9.43;;;3.88;;
38843;SDS011;24596;48.080;8.362;2023-09-07T10:56:20;7.47;;;3.58;;
38843;SDS011;24596;48.080;8.362;2023-09-07T10:58:49;6.63;;;3.70;;
38843;SDS011;24596;48.080;8.362;2023-09-07T11:01:16;10.40;;;3.70;;
38843;SDS011;24596;48.080;8.362;2023-09-07T11:03:41;8.43;;;3.93;;
38843;SDS011;24596;48.080;8.362;2023-09-07T11:06:08;7.72;;;3.67;;
38843;SDS011;24596;48.080;8.362;2023-09-07T11:08:34;5.75;;;3.70;;
38843;SDS011;24596;48.080;8.362;2023-09-07T11:11:00;6.53;;;3.88;;
38843;SDS011;24596;48.080;8.362;2023-09-07T11:13:26;8.27;;;3.97;;
38843;SDS011;24596;48.080;8.362;2023-09-07T11:15:55;6.40;;;3.63;;
38843;SDS011;24596;48.080;8.362;2023-09-07T11:18:21;7.63;;;4.28;;
38843;SDS011;24596;48.080;8.362;2023-09-07T11:20:46;6.68;;;4.00;;
38843;SDS011;24596;48.080;8.362;2023-09-07T11:23:12;8.63;;;3.83;;
38843;SDS011;24596;48.080;8.362;2023-09-07T11:25:38;6.88;;;3.83;;
38843;SDS011;24596;48.080;8.362;2023-09-07T11:28:04;7.40;;;3.80;;
38843;SDS011;24596;48.080;8.362;2023-09-07T11:30:29;7.10;;;4.10;;
38843;SDS011;24596;48.080;8.362;2023-09-07T11:33:07;8.00;;;4.00;;
38843;SDS011;24596;48.080;8.362;2023-09-07T11:35:35;8.68;;;3.90;;
38843;SDS011;24596;48.080;8.362;2023-09-07T11:38:03;9.10;;;4.05;;
38843;SDS011;24596;48.080;8.362;2023-09-07T11:40:32;8.00;;;3.78;;
38843;SDS011;24596;48.080;8.362;2023-09-07T11:42:58;6.72;;;3.53;;
38843;SDS011;24596;48.080;8.362;2023-09-07T11:45:23;7.70;;;3.72;;
38843;SDS011;24596;48.080;8.362;2023-09-07T11:47:48;6.83;;;3.70;;
38843;SDS011;24596;48.080;8.362;2023-09-07T11:50:16;9.50;;;3.53;;
38843;SDS011;24596;48.080;8.362;2023-09-07T11:52:41;5.72;;;3.40;;
38843;SDS011;24596;48.080;8.362;2023-09-07T11:55:07;5.70;;;3.40;;
38843;SDS011;24596;48.080;8.362;2023-09-07T11:57:32;5.90;;;3.72;;
38843;SDS011;24596;48.080;8.362;2023-09-07T11:59:57;5.93;;;3.50;;
38843;SDS011;24596;48.080;8.362;2023-09-07T12:02:23;8.75;;;4.07;;
38843;SDS011;24596;48.080;8.362;2023-09-07T12:04:48;7.22;;;3.83;;
38843;SDS011;24596;48.080;8.362;2023-09-07T12:07:14;6.95;;;3.90;;
38843;SDS011;24596;48.080;8.362;2023-09-07T12:09:39;7.80;;;3.75;;
38843;SDS011;24596;48.080;8.362;2023-09-07T12:12:04;5.15;;;3.03;;
38843;SDS011;24596;48.080;8.362;2023-09-07T12:14:30;4.95;;;3.17;;
38843;SDS011;24596;48.080;8.362;2023-09-07T12:16:56;8.35;;;3.60;;
38843;SDS011;24596;48.080;8.362;2023-09-07T12:19:21;5.90;;;3.38;;
38843;SDS011;24596;48.080;8.362;2023-09-07T12:21:46;6.97;;;3.23;;
38843;SDS011;24596;48.080;8.362;2023-09-07T12:24:11;8.43;;;3.90;;
38843;SDS011;24596;48.080;8.362;2023-09-07T12:26:37;7.68;;;4.00;;
38843;SDS011;24596;48.080;8.362;2023-09-07T12:29:02;6.60;;;3.45;;
38843;SDS011;24596;48.080;8.362;2023-09-07T12:31:27;6.73;;;3.53;;
38843;SDS011;24596;48.080;8.362;2023-09-07T12:33:53;5.87;;;3.30;;
38843;SDS011;24596;48.080;8.362;2023-09-07T12:36:18;9.07;;;3.60;;
38843;SDS011;24596;48.080;8.362;2023-09-07T12:38:46;8.10;;;3.75;;
38843;SDS011;24596;48.080;8.362;2023-09-07T12:41:11;6.67;;;3.87;;
38843;SDS011;24596;48.080;8.362;2023-09-07T12:43:37;5.68;;;3.47;;
38843;SDS011;24596;48.080;8.362;2023-09-07T12:46:02;8.18;;;3.55;;
38843;SDS011;24596;48.080;8.362;2023-09-07T12:48:28;7.32;;;3.67;;
38843;SDS011;24596;48.080;8.362;2023-09-07T12:50:54;7.40;;;3.57;;
38843;SDS011;24596;48.080;8.362;2023-09-07T12:53:20;6.30;;;3.60;;
38843;SDS011;24596;48.080;8.362;2023-09-07T12:55:49;6.75;;;3.58;;
38843;SDS011;24596;48.080;8.362;2023-09-07T12:58:14;7.18;;;3.03;;
38843;SDS011;24596;48.080;8.362;2023-09-07T13:00:39;5.20;;;3.10;;
38843;SDS011;24596;48.080;8.362;2023-09-07T13:03:05;5.90;;;3.47;;
38843;SDS011;24596;48.080;8.362;2023-09-07T13:05:30;6.33;;;3.40;;
38843;SDS011;24596;48.080;8.362;2023-09-07T13:07:55;8.40;;;3.75;;
38843;SDS011;24596;48.080;8.362;2023-09-07T13:10:22;7.13;;;3.25;;
38843;SDS011;24596;48.080;8.362;2023-09-07T13:12:47;8.40;;;3.60;;
38843;SDS011;24596;48.080;8.362;2023-09-07T13:15:13;5.63;;;3.40;;
38843;SDS011;24596;48.080;8.362;2023-09-07T13:17:38;6.83;;;3.30;;
38843;SDS011;24596;48.080;8.362;2023-09-07T13:20:03;6.25;;;3.63;;
38843;SDS011;24596;48.080;8.362;2023-09-07T13:22:29;7.35;;;3.30;;
38843;SDS011;24596;48.080;8.362;2023-09-07T13:24:54;9.60;;;3.97;;
38843;SDS011;24596;48.080;8.362;2023-09-07T13:27:19;5.27;;;3.10;;
38843;SDS011;24596;48.080;8.362;2023-09-07T13:29:44;7.97;;;3.50;;
38843;SDS011;24596;48.080;8.362;2023-09-07T13:32:10;6.67;;;3.73;;
38843;SDS011;24596;48.080;8.362;2023-09-07T13:34:35;6.63;;;3.70;;
38843;SDS011;24596;48.080;8.362;2023-09-07T13:37:00;5.10;;;3.45;;
38843;SDS011;24596;48.080;8.362;2023-09-07T13:39:25;7.10;;;3.58;;
38843;SDS011;24596;48.080;8.362;2023-09-07T13:41:51;5.70;;;3.40;;
38843;SDS011;24596;48.080;8.362;2023-09-07T13:44:16;7.43;;;3.70;;
38843;SDS011;24596;48.080;8.362;2023-09-07T13:46:42;7.47;;;3.85;;
38843;SDS011;24596;48.080;8.362;2023-09-07T13:49:08;6.05;;;3.53;;
38843;SDS011;24596;48.080;8.362;2023-09-07T13:51:34;6.55;;;3.40;;
38843;SDS011;24596;48.080;8.362;2023-09-07T13:54:06;10.50;;;3.63;;
38843;SDS011;24596;48.080;8.362;2023-09-07T13:56:32;6.88;;;3.38;;
38843;SDS011;24596;48.080;8.362;2023-09-07T13:58:57;9.30;;;3.70;;
38843;SDS011;24596;48.080;8.362;2023-09-07T14:01:22;7.23;;;3.60;;
38843;SDS011;24596;48.080;8.362;2023-09-07T14:03:49;7.10;;;3.35;;
38843;SDS011;24596;48.080;8.362;2023-09-07T14:06:14;8.10;;;3.40;;
38843;SDS011;24596;48.080;8.362;2023-09-07T14:08:39;12.17;;;3.47;;
38843;SDS011;24596;48.080;8.362;2023-09-07T14:11:05;6.13;;;3.67;;
38843;SDS011;24596;48.080;8.362;2023-09-07T14:13:31;9.07;;;3.53;;
38843;SDS011;24596;48.080;8.362;2023-09-07T14:15:59;8.70;;;3.75;;
38843;SDS011;24596;48.080;8.362;2023-09-07T14:18:24;7.53;;;3.33;;
38843;SDS011;24596;48.080;8.362;2023-09-07T14:20:49;10.50;;;3.77;;
38843;SDS011;24596;48.080;8.362;2023-09-07T14:23:14;8.37;;;3.37;;
38843;SDS011;24596;48.080;8.362;2023-09-07T14:25:40;6.23;;;3.33;;
38843;SDS011;24596;48.080;8.362;2023-09-07T14:28:07;6.38;;;3.70;;
38843;SDS011;24596;48.080;8.362;2023-09-07T14:30:32;7.27;;;4.03;;
38843;SDS011;24596;48.080;8.362;2023-09-07T14:32:57;8.95;;;3.30;;
38843;SDS011;24596;48.080;8.362;2023-09-07T14:35:22;5.73;;;3.47;;
38843;SDS011;24596;48.080;8.362;2023-09-07T14:37:48;7.27;;;4.23;;
38843;SDS011;24596;48.080;8.362;2023-09-07T14:40:13;6.63;;;3.58;;